createdAt,value
2023-04-07T00:00:23.466Z,93.37
2023-04-07T00:01:23.437Z,93.58
2023-04-07T00:02:23.553Z,93.27
2023-04-07T00:03:23.589Z,93.37
2023-04-07T00:04:28.885Z,93.68
2023-04-07T00:05:23.400Z,93.58
2023-04-07T00:06:23.381Z,93.48
2023-04-07T00:07:23.384Z,93.27
2023-04-07T00:08:23.357Z,93.48
2023-04-07T00:09:23.355Z,93.48
2023-04-07T00:10:23.388Z,93.58
2023-04-07T00:11:23.329Z,93.68
2023-04-07T00:12:23.322Z,93.06
2023-04-07T00:13:23.307Z,92.55
2023-04-07T00:14:23.308Z,93.58
2023-04-07T00:15:28.320Z,92.55
2023-04-07T00:16:23.362Z,92.55
2023-04-07T00:17:23.280Z,92.44
2023-04-07T00:18:23.246Z,92.59
2023-04-07T00:19:23.263Z,92.69
2023-04-07T00:20:23.268Z,92.96
2023-04-07T00:21:23.216Z,93.27
2023-04-07T00:22:23.224Z,92.59
2023-04-07T00:23:23.196Z,93.27
2023-04-07T00:24:33.302Z,93.27
2023-04-07T00:25:23.196Z,93.48
2023-04-07T00:26:28.187Z,92.76
2023-04-07T00:27:23.148Z,93.11
2023-04-07T00:28:23.170Z,93.62
2023-04-07T00:29:23.121Z,93.31
2023-04-07T00:30:23.121Z,93.62
2023-04-07T00:31:23.117Z,93.31
2023-04-07T00:32:23.127Z,93.31
2023-04-07T00:33:23.094Z,93.41
2023-04-07T00:34:23.100Z,92.90
2023-04-07T00:35:23.059Z,93.31
2023-04-07T00:36:23.056Z,93.31
2023-04-07T00:37:28.059Z,93.52
2023-04-07T00:38:23.023Z,93.41
2023-04-07T00:39:23.032Z,93.41
2023-04-07T00:40:23.046Z,93.52
2023-04-07T00:41:22.982Z,93.16
2023-04-07T00:42:22.980Z,93.31
2023-04-07T00:43:22.962Z,93.21
2023-04-07T00:44:22.959Z,92.80
2023-04-07T00:45:22.954Z,93.62
2023-04-07T00:46:22.962Z,93.11
2023-04-07T00:47:22.949Z,92.80
2023-04-07T00:48:27.927Z,92.55
2023-04-07T00:49:22.894Z,93.11
2023-04-07T00:50:22.896Z,93.52
2023-04-07T00:51:22.878Z,93.21
2023-04-07T00:52:22.899Z,93.16
2023-04-07T00:53:22.850Z,93.27
2023-04-07T00:54:22.843Z,93.01
2023-04-07T00:55:22.853Z,93.41
2023-04-07T00:56:22.816Z,93.73
2023-04-07T00:57:22.812Z,93.58
2023-04-07T00:58:22.818Z,93.27
2023-04-07T00:59:27.804Z,93.31
2023-04-07T01:00:22.786Z,93.41
2023-04-07T01:01:22.807Z,93.31
2023-04-07T01:02:22.881Z,93.52
2023-04-07T01:03:23.029Z,93.41
2023-04-07T01:04:22.866Z,92.80
2023-04-07T01:05:22.710Z,92.69
2023-04-07T01:06:22.733Z,93.48
2023-04-07T01:07:22.699Z,93.27
2023-04-07T01:08:22.710Z,93.27
2023-04-07T01:09:22.672Z,93.48
2023-04-07T01:10:27.746Z,93.27
2023-04-07T01:11:22.644Z,93.06
2023-04-07T01:12:22.636Z,92.90
2023-04-07T01:13:22.618Z,93.27
2023-04-07T01:14:22.608Z,93.16
2023-04-07T01:15:22.624Z,92.86
2023-04-07T01:16:22.640Z,93.27
2023-04-07T01:17:22.665Z,93.48
2023-04-07T01:18:22.566Z,93.27
2023-04-07T01:19:22.551Z,93.58
2023-04-07T01:20:22.547Z,93.37
2023-04-07T01:21:27.561Z,93.31
2023-04-07T01:22:22.550Z,93.37
2023-04-07T01:23:22.511Z,92.86
2023-04-07T01:24:22.605Z,93.06
2023-04-07T01:25:22.502Z,92.86
2023-04-07T01:26:22.486Z,92.86
2023-04-07T01:27:22.461Z,92.49
2023-04-07T01:28:22.451Z,92.55
2023-04-07T01:29:22.484Z,92.34
2023-04-07T01:30:22.431Z,92.14
2023-04-07T01:31:22.489Z,91.93
2023-04-07T01:32:27.455Z,91.83
2023-04-07T01:33:22.396Z,92.14
2023-04-07T01:34:22.383Z,92.29
2023-04-07T01:35:22.413Z,92.24
2023-04-07T01:36:22.370Z,92.18
2023-04-07T01:37:22.366Z,91.93
2023-04-07T01:38:22.339Z,91.83
2023-04-07T01:39:22.329Z,92.14
2023-04-07T01:40:22.340Z,92.08
2023-04-07T01:41:22.356Z,91.62
2023-04-07T01:42:22.306Z,91.62
2023-04-07T01:43:27.303Z,91.72
2023-04-07T01:44:22.302Z,91.21
2023-04-07T01:45:22.259Z,91.31
2023-04-07T01:46:22.257Z,91.11
2023-04-07T01:47:22.442Z,91.11
2023-04-07T01:48:22.232Z,91.11
2023-04-07T01:49:22.221Z,91.11
2023-04-07T01:50:22.213Z,91.52
2023-04-07T01:51:22.205Z,91.42
2023-04-07T01:52:22.185Z,91.00
2023-04-07T01:53:22.189Z,90.94
2023-04-07T01:54:27.184Z,91.62
2023-04-07T01:55:22.153Z,91.56
2023-04-07T01:56:22.179Z,91.42
2023-04-07T01:57:22.133Z,91.52
2023-04-07T01:58:22.118Z,91.11
2023-04-07T01:59:22.134Z,91.83
2023-04-07T02:00:22.098Z,91.62
2023-04-07T02:01:22.116Z,91.52
2023-04-07T02:02:22.167Z,91.31
2023-04-07T02:03:22.277Z,91.31
2023-04-07T02:04:22.066Z,91.52
2023-04-07T02:05:27.123Z,91.42
2023-04-07T02:06:22.035Z,90.28
2023-04-07T02:07:22.026Z,90.90
2023-04-07T02:08:22.007Z,90.39
2023-04-07T02:09:21.999Z,90.08
2023-04-07T02:10:21.980Z,90.18
2023-04-07T02:11:22.000Z,90.90
2023-04-07T02:12:21.978Z,90.59
2023-04-07T02:13:21.967Z,90.69
2023-04-07T02:14:21.932Z,89.91
2023-04-07T02:15:21.920Z,89.87
2023-04-07T02:16:26.965Z,90.08
2023-04-07T02:17:21.918Z,89.97
2023-04-07T02:18:21.897Z,89.97
2023-04-07T02:19:21.874Z,89.87
2023-04-07T02:20:21.883Z,89.97
2023-04-07T02:21:21.862Z,89.67
2023-04-07T02:22:21.852Z,90.59
2023-04-07T02:23:21.850Z,90.28
2023-04-07T02:24:21.848Z,90.18
2023-04-07T02:25:21.817Z,89.67
2023-04-07T02:26:21.820Z,90.18
2023-04-07T02:27:26.824Z,89.87
2023-04-07T02:28:21.780Z,90.18
2023-04-07T02:29:21.794Z,90.49
2023-04-07T02:30:21.749Z,90.08
2023-04-07T02:31:21.761Z,91.00
2023-04-07T02:32:21.757Z,89.77
2023-04-07T02:33:21.716Z,90.39
2023-04-07T02:34:21.704Z,90.49
2023-04-07T02:35:21.733Z,89.77
2023-04-07T02:36:21.707Z,90.39
2023-04-07T02:37:21.686Z,90.39
2023-04-07T02:38:26.682Z,90.49
2023-04-07T02:39:21.648Z,90.90
2023-04-07T02:40:21.638Z,91.42
2023-04-07T02:41:21.647Z,91.42
2023-04-07T02:42:21.624Z,90.43
2023-04-07T02:43:21.628Z,90.80
2023-04-07T02:44:21.620Z,90.80
2023-04-07T02:45:21.581Z,90.39
2023-04-07T02:46:21.615Z,90.49
2023-04-07T02:47:21.630Z,90.90
2023-04-07T02:48:21.540Z,90.39
2023-04-07T02:49:26.569Z,90.49
2023-04-07T02:50:21.523Z,90.08
2023-04-07T02:51:21.509Z,90.18
2023-04-07T02:52:21.504Z,90.18
2023-04-07T02:53:21.508Z,90.39
2023-04-07T02:54:21.471Z,90.28
2023-04-07T02:55:21.480Z,89.77
2023-04-07T02:56:21.448Z,90.53
2023-04-07T02:57:21.450Z,89.97
2023-04-07T02:58:21.425Z,90.18
2023-04-07T02:59:21.450Z,90.28
2023-04-07T03:00:26.433Z,90.59
2023-04-07T03:01:21.414Z,90.90
2023-04-07T03:02:21.466Z,91.21
2023-04-07T03:03:21.663Z,91.00
2023-04-07T03:04:21.569Z,90.80
2023-04-07T03:05:21.374Z,89.87
2023-04-07T03:06:21.345Z,90.39
2023-04-07T03:07:21.341Z,90.28
2023-04-07T03:08:21.310Z,90.08
2023-04-07T03:09:21.300Z,89.67
2023-04-07T03:10:21.289Z,90.18
2023-04-07T03:11:26.339Z,89.15
2023-04-07T03:12:21.274Z,89.67
2023-04-07T03:13:21.257Z,89.77
2023-04-07T03:14:21.240Z,89.25
2023-04-07T03:15:21.257Z,88.74
2023-04-07T03:16:21.261Z,89.05
2023-04-07T03:17:21.276Z,89.05
2023-04-07T03:18:21.195Z,89.05
2023-04-07T03:19:21.187Z,89.05
2023-04-07T03:20:21.185Z,89.05
2023-04-07T03:21:21.161Z,88.64
2023-04-07T03:22:26.199Z,89.25
2023-04-07T03:23:21.179Z,89.25
2023-04-07T03:24:21.135Z,88.74
2023-04-07T03:25:21.124Z,89.56
2023-04-07T03:26:21.106Z,89.81
2023-04-07T03:27:21.104Z,89.97
2023-04-07T03:28:21.083Z,89.97
2023-04-07T03:29:21.146Z,89.97
2023-04-07T03:30:21.061Z,89.77
2023-04-07T03:31:21.104Z,89.46
2023-04-07T03:32:21.050Z,89.15
2023-04-07T03:33:26.053Z,89.36
2023-04-07T03:34:21.028Z,89.36
2023-04-07T03:35:21.072Z,89.61
2023-04-07T03:36:21.007Z,89.61
2023-04-07T03:37:20.991Z,89.56
2023-04-07T03:38:20.969Z,89.67
2023-04-07T03:39:20.960Z,89.87
2023-04-07T03:40:20.952Z,90.28
2023-04-07T03:41:20.982Z,90.18
2023-04-07T03:42:20.935Z,90.39
2023-04-07T03:43:20.922Z,90.59
2023-04-07T03:44:25.929Z,90.59
2023-04-07T03:45:20.895Z,90.18
2023-04-07T03:46:20.962Z,90.18
2023-04-07T03:47:20.912Z,89.77
2023-04-07T03:48:20.856Z,90.01
2023-04-07T03:49:20.847Z,89.77
2023-04-07T03:50:20.833Z,89.87
2023-04-07T03:51:20.835Z,90.08
2023-04-07T03:52:20.822Z,89.67
2023-04-07T03:53:20.827Z,89.67
2023-04-07T03:54:20.802Z,89.87
2023-04-07T03:55:25.806Z,90.28
2023-04-07T03:56:20.771Z,90.49
2023-04-07T03:57:20.765Z,90.12
2023-04-07T03:58:20.750Z,90.59
2023-04-07T03:59:20.765Z,90.18
2023-04-07T04:00:20.781Z,90.39
2023-04-07T04:01:20.713Z,90.28
2023-04-07T04:02:20.817Z,90.28
2023-04-07T04:03:21.004Z,89.87
2023-04-07T04:04:20.765Z,90.49
2023-04-07T04:05:20.778Z,90.33
2023-04-07T04:06:25.688Z,90.22
2023-04-07T04:07:20.675Z,90.59
2023-04-07T04:08:20.701Z,90.18
2023-04-07T04:09:20.739Z,90.08
2023-04-07T04:10:20.619Z,90.18
2023-04-07T04:11:20.660Z,90.28
2023-04-07T04:12:20.610Z,89.97
2023-04-07T04:13:20.583Z,90.08
2023-04-07T04:14:20.568Z,90.28
2023-04-07T04:15:20.557Z,90.59
2023-04-07T04:16:20.615Z,89.87
2023-04-07T04:17:25.620Z,89.87
2023-04-07T04:18:20.525Z,89.87
2023-04-07T04:19:20.548Z,89.67
2023-04-07T04:20:20.505Z,90.69
2023-04-07T04:21:20.491Z,90.39
2023-04-07T04:22:20.513Z,89.77
2023-04-07T04:23:20.493Z,89.87
2023-04-07T04:24:20.454Z,89.77
2023-04-07T04:25:20.446Z,90.39
2023-04-07T04:26:20.431Z,90.18
2023-04-07T04:27:20.442Z,89.77
2023-04-07T04:28:25.436Z,90.39
2023-04-07T04:29:20.447Z,89.77
2023-04-07T04:30:20.386Z,90.08
2023-04-07T04:31:20.407Z,89.67
2023-04-07T04:32:20.510Z,90.08
2023-04-07T04:33:20.357Z,90.08
2023-04-07T04:34:20.344Z,89.87
2023-04-07T04:35:20.366Z,89.36
2023-04-07T04:36:20.355Z,89.67
2023-04-07T04:37:20.325Z,89.25
2023-04-07T04:38:20.298Z,89.77
2023-04-07T04:39:25.339Z,89.15
2023-04-07T04:40:20.286Z,89.36
2023-04-07T04:41:20.303Z,89.15
2023-04-07T04:42:20.259Z,89.56
2023-04-07T04:43:20.245Z,88.74
2023-04-07T04:44:20.231Z,88.70
2023-04-07T04:45:20.225Z,88.64
2023-04-07T04:46:20.206Z,89.36
2023-04-07T04:47:20.380Z,88.84
2023-04-07T04:48:20.192Z,89.36
2023-04-07T04:49:20.180Z,88.84
2023-04-07T04:50:25.214Z,88.95
2023-04-07T04:51:20.152Z,89.22
2023-04-07T04:52:20.146Z,88.64
2023-04-07T04:53:20.169Z,89.01
2023-04-07T04:54:20.118Z,88.49
2023-04-07T04:55:20.104Z,88.39
2023-04-07T04:56:20.097Z,88.59
2023-04-07T04:57:20.090Z,88.43
2023-04-07T04:58:20.072Z,88.49
2023-04-07T04:59:20.091Z,88.70
2023-04-07T05:00:20.054Z,88.49
2023-04-07T05:01:25.067Z,88.95
2023-04-07T05:02:20.112Z,88.59
2023-04-07T05:03:20.301Z,88.64
2023-04-07T05:04:20.281Z,89.11
2023-04-07T05:05:20.108Z,89.22
2023-04-07T05:06:20.009Z,88.90
2023-04-07T05:07:19.981Z,88.90
2023-04-07T05:08:19.959Z,88.59
2023-04-07T05:09:19.955Z,88.64
2023-04-07T05:10:19.945Z,88.59
2023-04-07T05:11:19.935Z,88.64
2023-04-07T05:12:24.947Z,88.39
2023-04-07T05:13:19.917Z,88.49
2023-04-07T05:14:19.890Z,88.33
2023-04-07T05:15:19.877Z,88.43
2023-04-07T05:16:19.900Z,88.49
2023-04-07T05:17:19.923Z,88.59
2023-04-07T05:18:19.849Z,88.59
2023-04-07T05:19:19.833Z,88.49
2023-04-07T05:20:19.836Z,88.53
2023-04-07T05:21:19.811Z,88.49
2023-04-07T05:22:19.945Z,88.49
2023-04-07T05:23:24.845Z,88.29
2023-04-07T05:24:19.805Z,87.98
2023-04-07T05:25:19.783Z,87.87
2023-04-07T05:26:19.757Z,87.77
2023-04-07T05:27:19.752Z,87.87
2023-04-07T05:28:19.736Z,87.98
2023-04-07T05:29:19.741Z,87.98
2023-04-07T05:30:19.721Z,87.87
2023-04-07T05:31:19.723Z,87.57
2023-04-07T05:32:19.747Z,87.57
2023-04-07T05:33:19.676Z,87.57
2023-04-07T05:34:24.689Z,87.77
2023-04-07T05:35:19.697Z,87.67
2023-04-07T05:36:19.646Z,87.87
2023-04-07T05:37:19.636Z,87.77
2023-04-07T05:38:19.770Z,87.67
2023-04-07T05:39:19.614Z,87.87
2023-04-07T05:40:19.597Z,87.87
2023-04-07T05:41:19.612Z,87.57
2023-04-07T05:42:19.575Z,87.42
2023-04-07T05:43:19.580Z,87.36
2023-04-07T05:44:19.550Z,87.32
2023-04-07T05:45:24.583Z,87.42
2023-04-07T05:46:19.550Z,87.42
2023-04-07T05:47:19.547Z,87.42
2023-04-07T05:48:19.525Z,87.84
2023-04-07T05:49:20.610Z,87.87
2023-04-07T05:50:19.484Z,87.94
2023-04-07T05:51:19.472Z,87.63
2023-04-07T05:52:19.469Z,88.14
2023-04-07T05:53:19.487Z,87.73
2023-04-07T05:54:19.455Z,87.84
2023-04-07T05:55:19.441Z,87.84
2023-04-07T05:56:24.469Z,87.94
2023-04-07T05:57:19.463Z,88.45
2023-04-07T05:58:19.400Z,88.04
2023-04-07T05:59:19.403Z,88.24
2023-04-07T06:00:19.372Z,87.84
2023-04-07T06:01:19.363Z,87.63
2023-04-07T06:02:19.533Z,87.63
2023-04-07T06:03:19.435Z,88.39
2023-04-07T06:04:19.325Z,88.14
2023-04-07T06:05:19.384Z,87.77
2023-04-07T06:06:19.301Z,87.94
2023-04-07T06:07:24.309Z,87.84
2023-04-07T06:08:19.286Z,88.14
2023-04-07T06:09:19.272Z,87.73
2023-04-07T06:10:19.295Z,88.04
2023-04-07T06:11:19.307Z,88.14
2023-04-07T06:12:19.237Z,87.84
2023-04-07T06:13:19.240Z,87.73
2023-04-07T06:14:19.215Z,87.73
2023-04-07T06:15:19.201Z,87.28
2023-04-07T06:16:19.753Z,87.49
2023-04-07T06:17:19.244Z,87.28
2023-04-07T06:18:24.193Z,87.38
2023-04-07T06:19:19.151Z,86.87
2023-04-07T06:20:19.140Z,86.72
2023-04-07T06:21:19.132Z,86.66
2023-04-07T06:22:19.120Z,86.15
2023-04-07T06:23:19.130Z,85.90
2023-04-07T06:24:19.095Z,86.21
2023-04-07T06:25:19.114Z,86.05
2023-04-07T06:26:19.123Z,85.49
2023-04-07T06:27:19.066Z,85.60
2023-04-07T06:28:19.078Z,85.80
2023-04-07T06:29:24.133Z,85.60
2023-04-07T06:30:19.031Z,85.70
2023-04-07T06:31:19.183Z,85.08
2023-04-07T06:32:19.018Z,85.18
2023-04-07T06:33:19.015Z,85.49
2023-04-07T06:34:18.988Z,85.70
2023-04-07T06:35:19.045Z,85.33
2023-04-07T06:36:18.959Z,85.18
2023-04-07T06:37:18.982Z,85.49
2023-04-07T06:38:18.950Z,85.18
2023-04-07T06:39:18.930Z,85.49
2023-04-07T06:40:23.932Z,85.80
2023-04-07T06:41:18.928Z,85.70
2023-04-07T06:42:18.912Z,85.97
2023-04-07T06:43:18.895Z,85.04
2023-04-07T06:44:18.872Z,85.55
2023-04-07T06:45:18.861Z,84.94
2023-04-07T06:46:18.964Z,84.69
2023-04-07T06:47:18.849Z,85.00
2023-04-07T06:48:18.853Z,84.18
2023-04-07T06:49:18.812Z,83.87
2023-04-07T06:50:18.800Z,83.56
2023-04-07T06:51:23.809Z,84.39
2023-04-07T06:52:18.776Z,84.28
2023-04-07T06:53:18.826Z,83.87
2023-04-07T06:54:18.760Z,84.28
2023-04-07T06:55:18.751Z,84.28
2023-04-07T06:56:18.773Z,84.18
2023-04-07T06:57:18.723Z,83.26
2023-04-07T06:58:18.741Z,83.01
2023-04-07T06:59:18.720Z,82.84
2023-04-07T07:00:18.899Z,83.05
2023-04-07T07:01:18.709Z,83.12
2023-04-07T07:02:23.813Z,83.12
2023-04-07T07:03:18.912Z,82.60
2023-04-07T07:04:18.753Z,82.70
2023-04-07T07:05:18.644Z,82.15
2023-04-07T07:06:18.624Z,82.05
2023-04-07T07:07:18.610Z,82.05
2023-04-07T07:08:18.607Z,81.50
2023-04-07T07:09:18.584Z,80.58
2023-04-07T07:10:18.575Z,80.68
2023-04-07T07:11:18.580Z,80.78
2023-04-07T07:12:18.561Z,80.31
2023-04-07T07:13:23.591Z,81.13
2023-04-07T07:14:18.539Z,80.99
2023-04-07T07:15:18.558Z,80.88
2023-04-07T07:16:18.534Z,80.37
2023-04-07T07:17:18.524Z,79.86
2023-04-07T07:18:18.505Z,80.27
2023-04-07T07:19:18.473Z,80.88
2023-04-07T07:20:18.464Z,79.21
2023-04-07T07:21:18.476Z,80.44
2023-04-07T07:22:18.440Z,80.03
2023-04-07T07:23:18.460Z,79.00
2023-04-07T07:24:23.435Z,80.13
2023-04-07T07:25:18.414Z,80.13
2023-04-07T07:26:18.400Z,80.09
2023-04-07T07:27:18.379Z,80.19
2023-04-07T07:28:18.413Z,79.07
2023-04-07T07:29:18.404Z,78.90
2023-04-07T07:30:18.354Z,79.27
2023-04-07T07:31:18.875Z,79.58
2023-04-07T07:32:18.334Z,78.76
2023-04-07T07:33:18.328Z,78.63
2023-04-07T07:34:18.304Z,78.42
2023-04-07T07:35:23.380Z,78.42
2023-04-07T07:36:18.338Z,77.64
2023-04-07T07:37:18.266Z,78.05
2023-04-07T07:38:18.266Z,78.66
2023-04-07T07:39:18.250Z,78.42
2023-04-07T07:40:18.238Z,78.42
2023-04-07T07:41:18.248Z,78.31
2023-04-07T07:42:18.210Z,77.91
2023-04-07T07:43:18.209Z,77.87
2023-04-07T07:44:18.188Z,77.46
2023-04-07T07:45:18.195Z,77.12
2023-04-07T07:46:23.232Z,77.19
2023-04-07T07:47:18.202Z,76.16
2023-04-07T07:48:18.154Z,74.69
2023-04-07T07:49:18.130Z,73.84
2023-04-07T07:50:18.133Z,74.05
2023-04-07T07:51:18.105Z,74.56
2023-04-07T07:52:18.102Z,74.66
2023-04-07T07:53:18.119Z,73.81
2023-04-07T07:54:18.073Z,74.22
2023-04-07T07:55:18.059Z,74.46
2023-04-07T07:56:18.055Z,74.25
2023-04-07T07:57:23.060Z,74.22
2023-04-07T07:58:18.043Z,73.23
2023-04-07T07:59:18.058Z,71.70
2023-04-07T08:00:18.021Z,70.98
2023-04-07T08:01:18.020Z,70.44
2023-04-07T08:02:18.083Z,70.72
2023-04-07T08:03:18.105Z,69.36
2023-04-07T08:04:18.276Z,69.06
2023-04-07T08:05:17.989Z,68.85
2023-04-07T08:06:17.962Z,68.21
2023-04-07T08:07:17.925Z,68.41
2023-04-07T08:08:22.949Z,67.43
2023-04-07T08:09:17.901Z,68.04
2023-04-07T08:10:17.914Z,67.10
2023-04-07T08:11:17.952Z,65.30
2023-04-07T08:12:17.867Z,67.05
2023-04-07T08:13:17.891Z,66.61
2023-04-07T08:14:17.847Z,65.50
2023-04-07T08:15:17.888Z,64.96
2023-04-07T08:16:17.904Z,63.91
2023-04-07T08:17:17.832Z,63.40
2023-04-07T08:18:17.836Z,63.81
2023-04-07T08:19:22.805Z,63.45
2023-04-07T08:20:17.790Z,64.01
2023-04-07T08:21:17.768Z,63.87
2023-04-07T08:22:17.763Z,64.81
2023-04-07T08:23:17.770Z,65.39
2023-04-07T08:24:17.744Z,64.99
2023-04-07T08:25:17.751Z,65.77
2023-04-07T08:26:17.718Z,64.73
2023-04-07T08:27:17.697Z,64.52
2023-04-07T08:28:17.705Z,64.52
2023-04-07T08:29:17.673Z,63.68
2023-04-07T08:30:22.749Z,63.85
2023-04-07T08:31:17.682Z,63.45
2023-04-07T08:32:17.641Z,63.68
2023-04-07T08:33:17.660Z,64.45
2023-04-07T08:34:17.622Z,64.45
2023-04-07T08:35:17.603Z,65.03
2023-04-07T08:36:17.594Z,64.73
2023-04-07T08:37:17.602Z,64.09
2023-04-07T08:38:17.582Z,63.14
2023-04-07T08:39:17.563Z,62.84
2023-04-07T08:40:17.574Z,63.01
2023-04-07T08:41:22.566Z,63.11
2023-04-07T08:42:17.526Z,63.21
2023-04-07T08:43:17.546Z,61.90
2023-04-07T08:44:17.511Z,63.68
2023-04-07T08:45:17.489Z,65.83
2023-04-07T08:46:17.517Z,67.12
2023-04-07T08:47:17.480Z,67.49
2023-04-07T08:48:17.485Z,66.85
2023-04-07T08:49:17.471Z,67.57
2023-04-07T08:50:17.454Z,67.53
2023-04-07T08:51:17.418Z,66.28
2023-04-07T08:52:22.487Z,65.36
2023-04-07T08:53:17.398Z,66.92
2023-04-07T08:54:17.395Z,66.58
2023-04-07T08:55:17.599Z,65.88
2023-04-07T08:56:17.367Z,64.65
2023-04-07T08:57:17.350Z,65.36
2023-04-07T08:58:17.356Z,66.21
2023-04-07T08:59:17.354Z,67.08
2023-04-07T09:00:17.322Z,68.13
2023-04-07T09:01:17.444Z,69.15
2023-04-07T09:02:17.362Z,68.44
2023-04-07T09:03:22.443Z,68.62
2023-04-07T09:04:17.335Z,67.60
2023-04-07T09:05:17.275Z,67.87
2023-04-07T09:06:17.271Z,67.26
2023-04-07T09:07:17.264Z,67.26
2023-04-07T09:08:17.229Z,67.60
2023-04-07T09:09:17.227Z,68.07
2023-04-07T09:10:17.204Z,68.68
2023-04-07T09:11:17.202Z,68.78
2023-04-07T09:12:17.185Z,68.48
2023-04-07T09:13:17.195Z,68.75
2023-04-07T09:14:22.211Z,69.12
2023-04-07T09:15:17.163Z,68.38
2023-04-07T09:16:17.174Z,67.53
2023-04-07T09:17:17.159Z,67.94
2023-04-07T09:18:17.109Z,66.79
2023-04-07T09:19:17.118Z,66.49
2023-04-07T09:20:17.141Z,65.16
2023-04-07T09:21:17.097Z,65.47
2023-04-07T09:22:17.084Z,65.23
2023-04-07T09:23:17.079Z,66.02
2023-04-07T09:24:17.053Z,64.56
2023-04-07T09:25:22.057Z,65.10
2023-04-07T09:26:17.029Z,64.93
2023-04-07T09:27:17.498Z,65.54
2023-04-07T09:28:17.019Z,65.36
2023-04-07T09:29:17.012Z,66.38
2023-04-07T09:30:16.974Z,66.99
2023-04-07T09:31:16.974Z,66.66
2023-04-07T09:32:16.949Z,65.81
2023-04-07T09:33:16.958Z,64.56
2023-04-07T09:34:16.967Z,64.87
2023-04-07T09:35:16.943Z,64.33
2023-04-07T09:36:21.948Z,64.03
2023-04-07T09:37:16.904Z,64.43
2023-04-07T09:38:16.887Z,63.69
2023-04-07T09:39:16.890Z,62.68
2023-04-07T09:40:16.907Z,62.98
2023-04-07T09:41:16.976Z,63.69
2023-04-07T09:42:16.865Z,64.91
2023-04-07T09:43:16.839Z,64.43
2023-04-07T09:44:16.832Z,64.36
2023-04-07T09:45:30.881Z,64.36
2023-04-07T09:46:16.838Z,64.70
2023-04-07T09:47:21.827Z,66.76
2023-04-07T09:48:16.775Z,66.76
2023-04-07T09:49:16.774Z,67.10
2023-04-07T09:50:16.746Z,67.94
2023-04-07T09:51:16.738Z,67.53
2023-04-07T09:52:16.745Z,67.50
2023-04-07T09:53:16.722Z,67.63
2023-04-07T09:54:16.716Z,66.72
2023-04-07T09:55:16.696Z,67.22
2023-04-07T09:56:16.679Z,67.94
2023-04-07T09:57:16.675Z,68.18
2023-04-07T09:58:21.710Z,68.07
2023-04-07T09:59:16.658Z,69.12
2023-04-07T10:00:16.648Z,69.90
2023-04-07T10:01:16.731Z,69.43
2023-04-07T10:02:16.783Z,69.97
2023-04-07T10:03:16.662Z,70.34
2023-04-07T10:04:16.711Z,70.38
2023-04-07T10:05:16.580Z,70.48
2023-04-07T10:06:16.711Z,70.99
2023-04-07T10:07:16.579Z,71.12
2023-04-07T10:08:16.567Z,70.92
2023-04-07T10:09:21.568Z,71.09
2023-04-07T10:10:16.581Z,71.12
2023-04-07T10:11:16.527Z,72.24
2023-04-07T10:12:16.512Z,72.92
2023-04-07T10:13:16.491Z,72.45
2023-04-07T10:14:16.530Z,72.38
2023-04-07T10:15:16.486Z,73.30
2023-04-07T10:16:16.528Z,73.60
2023-04-07T10:17:16.461Z,74.11
2023-04-07T10:18:16.431Z,73.91
2023-04-07T10:19:16.436Z,74.01
2023-04-07T10:20:21.523Z,73.91
2023-04-07T10:21:16.403Z,74.11
2023-04-07T10:22:16.421Z,74.28
2023-04-07T10:23:16.384Z,74.18
2023-04-07T10:24:16.408Z,73.74
2023-04-07T10:25:16.360Z,73.33
2023-04-07T10:26:16.346Z,72.45
2023-04-07T10:27:16.334Z,71.73
2023-04-07T10:28:16.352Z,70.62
2023-04-07T10:29:16.319Z,70.31
2023-04-07T10:30:16.309Z,71.84
2023-04-07T10:31:21.338Z,70.99
2023-04-07T10:32:16.286Z,70.55
2023-04-07T10:33:16.284Z,70.11
2023-04-07T10:34:16.271Z,70.52
2023-04-07T10:35:16.293Z,69.98
2023-04-07T10:36:16.235Z,70.79
2023-04-07T10:37:16.222Z,69.95
2023-04-07T10:38:16.260Z,69.78
2023-04-07T10:39:16.245Z,69.78
2023-04-07T10:40:16.214Z,70.28
2023-04-07T10:41:16.180Z,69.87
2023-04-07T10:42:21.194Z,69.34
2023-04-07T10:43:16.152Z,67.81
2023-04-07T10:44:16.155Z,67.20
2023-04-07T10:45:16.132Z,67.00
2023-04-07T10:46:16.140Z,67.00
2023-04-07T10:47:16.120Z,67.00
2023-04-07T10:48:16.132Z,67.10
2023-04-07T10:49:18.432Z,67.17
2023-04-07T10:50:16.102Z,66.50
2023-04-07T10:51:16.068Z,65.96
2023-04-07T10:52:16.053Z,64.44
2023-04-07T10:53:21.074Z,64.95
2023-04-07T10:54:16.069Z,64.21
2023-04-07T10:55:16.023Z,64.75
2023-04-07T10:56:16.024Z,63.32
2023-04-07T10:57:16.007Z,63.02
2023-04-07T10:58:15.984Z,63.26
2023-04-07T10:59:15.988Z,63.69
2023-04-07T11:00:16.008Z,63.62
2023-04-07T11:01:16.009Z,64.67
2023-04-07T11:02:16.026Z,66.86
2023-04-07T11:03:16.145Z,66.79
2023-04-07T11:04:21.110Z,66.69
2023-04-07T11:05:15.906Z,67.13
2023-04-07T11:06:15.927Z,67.60
2023-04-07T11:07:15.882Z,66.69
2023-04-07T11:08:15.868Z,66.08
2023-04-07T11:09:15.858Z,66.28
2023-04-07T11:10:15.970Z,66.61
2023-04-07T11:11:15.858Z,67.74
2023-04-07T11:12:15.847Z,67.83
2023-04-07T11:13:15.815Z,67.30
2023-04-07T11:14:15.801Z,67.16
2023-04-07T11:15:20.837Z,66.52
2023-04-07T11:16:15.850Z,66.02
2023-04-07T11:17:15.808Z,65.68
2023-04-07T11:18:15.758Z,64.94
2023-04-07T11:19:15.756Z,63.66
2023-04-07T11:20:15.774Z,63.43
2023-04-07T11:21:15.721Z,62.99
2023-04-07T11:22:28.549Z,61.78
2023-04-07T11:23:15.733Z,63.02
2023-04-07T11:24:15.685Z,63.15
2023-04-07T11:25:15.733Z,64.20
2023-04-07T11:26:20.688Z,64.61
2023-04-07T11:27:15.665Z,65.01
2023-04-07T11:28:15.675Z,65.11
2023-04-07T11:29:15.645Z,64.81
2023-04-07T11:30:15.682Z,64.70
2023-04-07T11:31:15.641Z,64.98
2023-04-07T11:32:15.599Z,64.78
2023-04-07T11:33:15.588Z,65.59
2023-04-07T11:34:15.571Z,65.08
2023-04-07T11:35:15.586Z,66.43
2023-04-07T11:36:15.593Z,66.13
2023-04-07T11:37:20.574Z,66.02
2023-04-07T11:38:15.534Z,65.18
2023-04-07T11:39:15.524Z,65.52
2023-04-07T11:40:15.515Z,65.11
2023-04-07T11:41:15.513Z,64.67
2023-04-07T11:42:15.484Z,64.88
2023-04-07T11:43:15.481Z,64.14
2023-04-07T11:44:15.497Z,63.60
2023-04-07T11:45:15.484Z,62.31
2023-04-07T11:46:15.492Z,63.66
2023-04-07T11:47:15.469Z,63.59
2023-04-07T11:48:20.441Z,64.43
2023-04-07T11:49:15.408Z,65.88
2023-04-07T11:50:15.431Z,64.67
2023-04-07T11:51:15.388Z,65.41
2023-04-07T11:52:15.369Z,65.33
2023-04-07T11:53:15.443Z,66.55
2023-04-07T11:54:15.346Z,66.96
2023-04-07T11:55:15.346Z,66.86
2023-04-07T11:56:15.377Z,66.66
2023-04-07T11:57:15.314Z,66.96
2023-04-07T11:58:15.303Z,67.36
2023-04-07T11:59:20.378Z,67.30
2023-04-07T12:00:15.375Z,67.80
2023-04-07T12:01:15.286Z,68.04
2023-04-07T12:02:15.345Z,68.44
2023-04-07T12:03:15.513Z,68.96
2023-04-07T12:04:15.356Z,69.67
2023-04-07T12:05:15.320Z,69.67
2023-04-07T12:06:15.244Z,68.79
2023-04-07T12:07:15.206Z,69.29
2023-04-07T12:08:15.190Z,69.80
2023-04-07T12:09:15.181Z,70.45
2023-04-07T12:10:20.206Z,70.45
2023-04-07T12:11:15.186Z,70.45
2023-04-07T12:12:15.146Z,70.34
2023-04-07T12:13:15.133Z,70.95
2023-04-07T12:14:15.123Z,71.47
2023-04-07T12:15:15.135Z,71.97
2023-04-07T12:16:15.128Z,72.08
2023-04-07T12:17:15.115Z,72.17
2023-04-07T12:18:15.078Z,72.17
2023-04-07T12:19:15.066Z,72.21
2023-04-07T12:20:15.061Z,72.41
2023-04-07T12:21:20.081Z,72.86
2023-04-07T12:22:15.031Z,73.26
2023-04-07T12:23:15.030Z,74.08
2023-04-07T12:24:15.015Z,73.88
2023-04-07T12:25:15.012Z,74.38
2023-04-07T12:26:14.992Z,74.01
2023-04-07T12:27:14.976Z,74.52
2023-04-07T12:28:14.969Z,74.52
2023-04-07T12:29:14.980Z,74.79
2023-04-07T12:30:14.952Z,75.51
2023-04-07T12:31:14.960Z,75.81
2023-04-07T12:32:19.969Z,75.81
2023-04-07T12:33:14.911Z,76.01
2023-04-07T12:34:14.895Z,75.95
2023-04-07T12:35:14.923Z,75.44
2023-04-07T12:36:14.883Z,75.34
2023-04-07T12:37:14.863Z,74.35
2023-04-07T12:38:14.850Z,73.50
2023-04-07T12:39:14.842Z,74.25
2023-04-07T12:40:14.826Z,74.11
2023-04-07T12:41:14.840Z,74.83
2023-04-07T12:42:14.807Z,75.44
2023-04-07T12:43:19.819Z,75.34
2023-04-07T12:44:14.786Z,74.83
2023-04-07T12:45:14.775Z,75.13
2023-04-07T12:46:14.818Z,75.13
2023-04-07T12:47:14.795Z,74.90
2023-04-07T12:48:14.742Z,74.45
2023-04-07T12:49:14.726Z,74.11
2023-04-07T12:50:14.717Z,73.47
2023-04-07T12:51:14.715Z,73.16
2023-04-07T12:52:14.692Z,72.04